Time;durP1;ratioP1;P1;durP2;ratioP2;P2;SDS_P1;SDS_P2;PMS_P1;PMS_P2;Temp;Humidity;BMP_temperature;BMP_pressure;BME280_temperature;BME280_humidity;BME280_pressure;Samples;Min_cycle;Max_cycle;Signal;HPM_P1;HPM_P2
2021/04/23 00:00:29;;;;;;;13.88;3.40;;;5.10;52.20;;;;;;4989920;28;20030;-78
2021/04/23 00:02:57;;;;;;;10.75;3.25;;;5.10;52.40;;;;;;4986518;28;20027;-78
2021/04/23 00:05:22;;;;;;;8.85;3.22;;;5.10;52.40;;;;;;4974438;28;20035;-79
2021/04/23 00:07:48;;;;;;;9.70;2.90;;;5.20;52.30;;;;;;4958468;28;20495;-79
2021/04/23 00:10:18;;;;;;;8.63;2.92;;;5.20;52.30;;;;;;4977586;28;20058;-79
2021/04/23 00:12:44;;;;;;;15.25;3.92;;;5.20;53.00;;;;;;4977520;28;20022;-78
2021/04/23 00:15:13;;;;;;;11.80;4.07;;;5.20;52.40;;;;;;4977271;28;20110;-78
2021/04/23 00:17:39;;;;;;;8.48;3.20;;;5.00;52.60;;;;;;4977200;28;20057;-79
2021/04/23 00:20:18;;;;;;;11.52;3.20;;;5.00;52.80;;;;;;4977253;28;20027;-79
2021/04/23 00:22:44;;;;;;;12.95;3.28;;;5.00;52.90;;;;;;4977004;28;20113;-79
2021/04/23 00:25:11;;;;;;;11.88;3.78;;;5.00;52.70;;;;;;4977115;28;20026;-79
2021/04/23 00:27:41;;;;;;;8.95;2.88;;;5.00;52.70;;;;;;4977161;28;20027;-79
2021/04/23 00:30:08;;;;;;;8.38;3.05;;;4.90;52.70;;;;;;4977137;28;20436;-79
2021/04/23 00:32:52;;;;;;;15.25;3.38;;;4.90;52.80;;;;;;4959812;28;20166;-79
2021/04/23 00:35:20;;;;;;;7.45;2.70;;;4.90;52.80;;;;;;4977050;28;20456;-79
2021/04/23 00:37:47;;;;;;;8.13;2.92;;;4.80;52.90;;;;;;4977005;28;20042;-79
2021/04/23 00:40:21;;;;;;;10.68;3.40;;;4.90;53.20;;;;;;4976800;28;20057;-80
2021/04/23 00:42:47;;;;;;;8.82;3.60;;;5.00;53.20;;;;;;4976922;28;20497;-78
2021/04/23 00:45:16;;;;;;;11.80;3.15;;;5.00;53.10;;;;;;4976827;28;20037;-78
2021/04/23 00:47:46;;;;;;;14.00;3.95;;;4.90;53.00;;;;;;4976842;28;20019;-79
2021/04/23 00:50:13;;;;;;;11.57;3.35;;;4.90;53.10;;;;;;4976703;28;20158;-79
2021/04/23 00:52:38;;;;;;;11.48;3.40;;;4.90;53.10;;;;;;4976693;28;20026;-79
2021/04/23 00:55:06;;;;;;;7.20;3.05;;;4.90;53.20;;;;;;4976492;28;20559;-79
2021/04/23 00:57:31;;;;;;;8.10;2.95;;;4.90;53.40;;;;;;4976500;28;20026;-78
2021/04/23 00:59:57;;;;;;;9.18;3.65;;;4.80;53.70;;;;;;4976494;28;20464;-78
2021/04/23 01:02:23;;;;;;;9.88;3.28;;;4.80;53.70;;;;;;4976514;28;20033;-78
2021/04/23 01:04:49;;;;;;;11.50;3.25;;;4.80;53.60;;;;;;4976591;28;20027;-78
2021/04/23 01:07:15;;;;;;;6.20;2.72;;;4.80;53.50;;;;;;4976295;28;20030;-78
2021/04/23 01:09:41;;;;;;;10.90;3.78;;;4.80;53.50;;;;;;4976404;28;20491;-78
2021/04/23 01:12:07;;;;;;;10.00;2.80;;;4.80;53.50;;;;;;4976224;28;20030;-79
2021/04/23 01:14:33;;;;;;;11.48;3.25;;;4.70;53.70;;;;;;4958853;28;20035;-79
2021/04/23 01:16:59;;;;;;;9.27;3.05;;;4.80;53.70;;;;;;4976212;28;20109;-80
2021/04/23 01:19:27;;;;;;;8.15;2.78;;;4.70;54.70;;;;;;4975053;28;20037;-78
2021/04/23 01:21:53;;;;;;;12.50;3.33;;;4.60;53.80;;;;;;4976248;28;20091;-78
2021/04/23 01:24:19;;;;;;;11.15;3.50;;;4.60;53.90;;;;;;4976416;28;20035;-78
2021/04/23 01:26:50;;;;;;;10.25;3.40;;;4.60;53.60;;;;;;4976122;28;20034;-78
2021/04/23 01:29:18;;;;;;;6.60;3.17;;;4.70;53.50;;;;;;4976042;28;20035;-78
2021/04/23 01:31:46;;;;;;;13.30;3.53;;;4.70;53.60;;;;;;4958603;28;20388;-79
2021/04/23 01:34:20;;;;;;;13.05;3.67;;;4.60;53.50;;;;;;4975926;28;20042;-79
2021/04/23 01:36:46;;;;;;;9.00;3.42;;;4.60;53.70;;;;;;4975809;28;20073;-78
2021/04/23 01:39:15;;;;;;;10.55;3.83;;;4.50;53.80;;;;;;4975870;28;20058;-78
2021/04/23 01:41:41;;;;;;;15.20;3.97;;;4.40;53.80;;;;;;4975748;28;20098;-78
2021/04/23 01:44:08;;;;;;;9.07;3.35;;;4.30;54.00;;;;;;4976337;28;20023;-78
2021/04/23 01:46:34;;;;;;;9.02;2.92;;;4.30;54.20;;;;;;4987728;28;20023;-79
2021/04/23 01:49:06;;;;;;;9.60;3.50;;;4.30;55.00;;;;;;4994854;28;20027;-77
2021/04/23 01:51:32;;;;;;;10.00;3.30;;;4.40;54.20;;;;;;4976698;28;20357;-78
2021/04/23 01:53:58;;;;;;;10.77;3.13;;;4.40;54.10;;;;;;4975840;28;20031;-78
2021/04/23 01:56:23;;;;;;;6.05;2.88;;;4.50;54.10;;;;;;4975483;28;20058;-78
2021/04/23 01:58:49;;;;;;;7.88;3.92;;;4.50;54.00;;;;;;4975548;28;20376;-78
2021/04/23 02:01:16;;;;;;;10.13;3.47;;;4.50;54.00;;;;;;4976400;28;20027;-78
2021/04/23 02:03:43;;;;;;;9.25;2.88;;;4.50;54.10;;;;;;4975988;28;20034;-78
2021/04/23 02:06:09;;;;;;;10.98;2.90;;;4.40;54.10;;;;;;4975970;28;20042;-78
2021/04/23 02:08:36;;;;;;;10.38;3.75;;;4.40;54.20;;;;;;4977047;28;20042;-78
2021/04/23 02:11:17;;;;;;;7.00;3.20;;;4.40;54.30;;;;;;4988740;28;20078;-79
2021/04/23 02:13:44;;;;;;;9.05;2.85;;;4.40;54.30;;;;;;4997485;28;20018;-78
2021/04/23 02:16:12;;;;;;;7.10;2.70;;;4.40;54.40;;;;;;4991893;28;20082;-79
2021/04/23 02:18:38;;;;;;;15.43;3.08;;;4.30;54.40;;;;;;4977061;28;20067;-79
2021/04/23 02:21:06;;;;;;;10.43;3.20;;;4.30;54.50;;;;;;4975388;28;20063;-79
2021/04/23 02:23:31;;;;;;;7.60;2.85;;;4.30;54.50;;;;;;4975031;28;20110;-78
2021/04/23 02:25:58;;;;;;;12.50;3.83;;;4.30;54.60;;;;;;4958248;28;20077;-79
2021/04/23 02:28:24;;;;;;;11.13;3.83;;;4.30;54.70;;;;;;4975209;28;20023;-78
2021/04/23 02:30:57;;;;;;;9.38;3.38;;;4.30;54.70;;;;;;4974925;28;20027;-78
2021/04/23 02:33:23;;;;;;;11.23;3.45;;;4.30;54.60;;;;;;4975534;28;20055;-79
2021/04/23 02:35:51;;;;;;;8.50;2.92;;;4.30;54.70;;;;;;4975417;28;20023;-78
2021/04/23 02:38:18;;;;;;;14.80;3.20;;;4.30;54.60;;;;;;4975146;28;20484;-78
2021/04/23 02:40:44;;;;;;;10.88;3.13;;;4.30;54.50;;;;;;4974956;28;20465;-78
2021/04/23 02:43:17;;;;;;;7.03;3.08;;;4.30;54.60;;;;;;4974936;28;20597;-78
2021/04/23 02:45:44;;;;;;;7.65;2.72;;;4.20;54.90;;;;;;4975179;28;20019;-79
2021/04/23 02:48:12;;;;;;;9.27;2.85;;;4.20;55.20;;;;;;4975363;28;20387;-78
2021/04/23 02:50:44;;;;;;;11.90;3.20;;;4.20;55.40;;;;;;4975452;28;20431;-79
2021/04/23 02:53:11;;;;;;;6.35;2.50;;;4.20;55.50;;;;;;4974726;28;20042;-78
2021/04/23 02:55:37;;;;;;;9.75;2.78;;;4.20;55.50;;;;;;4974459;28;20046;-77
2021/04/23 02:58:03;;;;;;;8.48;3.10;;;4.30;55.40;;;;;;4974481;28;20036;-77
2021/04/23 03:00:31;;;;;;;10.68;2.67;;;4.30;55.40;;;;;;4974546;28;20041;-78
2021/04/23 03:02:58;;;;;;;10.93;2.67;;;4.30;55.40;;;;;;4974329;28;20080;-78
2021/04/23 03:05:24;;;;;;;9.32;3.15;;;4.30;55.30;;;;;;4974550;28;20391;-79
2021/04/23 03:07:53;;;;;;;6.88;3.00;;;4.10;55.40;;;;;;4974803;28;20027;-78
2021/04/23 03:10:23;;;;;;;8.70;3.05;;;4.10;55.70;;;;;;4974370;28;20050;-78
2021/04/23 03:12:49;;;;;;;7.07;2.95;;;4.00;56.10;;;;;;4974278;28;20031;-78
2021/04/23 03:15:16;;;;;;;11.80;3.47;;;4.00;56.30;;;;;;4974332;28;20073;-78
2021/04/23 03:17:42;;;;;;;11.27;3.65;;;4.00;56.40;;;;;;4974286;28;20499;-78
2021/04/23 03:20:13;;;;;;;11.98;3.63;;;4.00;56.30;;;;;;4974483;28;20031;-78
2021/04/23 03:22:40;;;;;;;7.80;3.20;;;4.10;56.20;;;;;;4974268;28;20042;-78
2021/04/23 03:25:07;;;;;;;7.68;3.10;;;4.10;56.20;;;;;;4974251;28;20027;-79
2021/04/23 03:27:32;;;;;;;8.30;3.00;;;4.10;56.30;;;;;;4974182;28;20050;-78
2021/04/23 03:29:58;;;;;;;10.43;3.50;;;4.20;56.20;;;;;;4974033;28;20019;-78
2021/04/23 03:32:24;;;;;;;9.45;3.10;;;4.20;56.10;;;;;;4974362;28;20027;-78
2021/04/23 03:34:49;;;;;;;10.60;3.22;;;4.30;56.00;;;;;;4974196;28;20023;-78
2021/04/23 03:37:15;;;;;;;10.75;3.80;;;4.20;55.80;;;;;;4974206;28;20019;-78
2021/04/23 03:39:41;;;;;;;10.15;3.35;;;4.20;55.60;;;;;;4984676;28;20494;-78
2021/04/23 03:42:06;;;;;;;10.63;3.40;;;4.20;55.60;;;;;;4994963;28;20034;-77
2021/04/23 03:44:32;;;;;;;11.73;3.50;;;4.10;55.60;;;;;;4979780;28;20027;-79
2021/04/23 03:46:58;;;;;;;7.03;2.85;;;4.10;55.50;;;;;;4978239;28;20061;-78
2021/04/23 03:49:23;;;;;;;8.02;3.50;;;4.10;55.60;;;;;;4977976;28;20085;-78
2021/04/23 03:51:49;;;;;;;7.47;3.20;;;4.10;55.70;;;;;;4977818;28;20093;-78
2021/04/23 03:54:15;;;;;;;9.90;3.25;;;4.10;55.70;;;;;;4977666;28;20023;-77
2021/04/23 03:56:41;;;;;;;5.47;2.72;;;4.10;55.60;;;;;;4977423;28;20051;-77
2021/04/23 03:59:06;;;;;;;7.20;2.85;;;4.00;55.60;;;;;;4977524;28;20041;-77
2021/04/23 04:01:34;;;;;;;10.52;3.13;;;4.00;56.60;;;;;;4977435;28;20035;-77
2021/04/23 04:04:01;;;;;;;7.70;2.95;;;3.90;56.00;;;;;;4977473;28;20023;-77
2021/04/23 04:06:26;;;;;;;10.18;3.30;;;3.90;56.10;;;;;;4977340;28;20019;-77
2021/04/23 04:08:53;;;;;;;13.13;4.07;;;3.90;56.30;;;;;;4977461;28;20106;-77
2021/04/23 04:11:19;;;;;;;12.48;3.45;;;3.90;56.30;;;;;;4977394;28;20030;-77
2021/04/23 04:13:45;;;;;;;7.93;3.45;;;3.90;56.40;;;;;;4977617;28;20033;-78
2021/04/23 04:16:11;;;;;;;8.85;3.72;;;3.90;56.50;;;;;;4977355;28;20106;-77
2021/04/23 04:18:36;;;;;;;12.10;5.97;;;3.90;56.40;;;;;;4977211;28;20027;-77
2021/04/23 04:21:03;;;;;;;10.93;4.82;;;3.90;56.40;;;;;;4977155;28;20031;-77
2021/04/23 04:23:29;;;;;;;12.75;4.60;;;3.90;56.40;;;;;;4959820;28;20035;-77
2021/04/23 04:25:57;;;;;;;20.70;4.13;;;3.90;56.30;;;;;;4977133;28;20551;-80
2021/04/23 04:28:24;;;;;;;17.80;4.50;;;3.80;56.40;;;;;;4977148;28;20019;-78
2021/04/23 04:30:50;;;;;;;10.45;3.72;;;3.80;56.30;;;;;;4977056;28;20538;-79
2021/04/23 04:33:16;;;;;;;14.45;4.30;;;3.80;56.30;;;;;;4977155;28;20106;-78
2021/04/23 04:35:42;;;;;;;11.80;3.63;;;3.80;56.40;;;;;;4976975;28;20073;-78
2021/04/23 04:38:10;;;;;;;15.10;4.35;;;3.70;56.50;;;;;;4976988;28;20483;-78
2021/04/23 04:40:38;;;;;;;13.45;3.42;;;3.80;56.60;;;;;;4977056;28;20113;-75
2021/04/23 04:43:09;;;;;;;12.52;4.10;;;3.80;56.70;;;;;;4980790;28;20550;-76
2021/04/23 04:45:35;;;;;;;16.67;5.00;;;3.70;56.60;;;;;;4982347;28;20027;-76
2021/04/23 04:48:00;;;;;;;12.75;4.88;;;3.70;56.60;;;;;;4979453;28;20027;-76
2021/04/23 04:50:41;;;;;;;10.93;4.47;;;3.70;56.40;;;;;;4977816;28;20034;-76
2021/04/23 04:53:09;;;;;;;15.68;4.70;;;3.70;56.30;;;;;;4976804;28;20077;-76
2021/04/23 04:55:39;;;;;;;15.82;4.90;;;3.60;56.30;;;;;;4976572;28;20078;-76
2021/04/23 04:58:08;;;;;;;11.50;4.90;;;3.50;56.60;;;;;;4976399;28;20030;-76
2021/04/23 05:00:35;;;;;;;16.00;5.75;;;3.60;56.80;;;;;;4976499;28;20060;-77
2021/04/23 05:03:01;;;;;;;21.88;6.05;;;3.60;56.90;;;;;;4976452;28;20451;-76
2021/04/23 05:05:28;;;;;;;19.50;7.13;;;3.70;57.00;;;;;;4976444;28;20027;-77
2021/04/23 05:07:54;;;;;;;18.13;7.05;;;3.80;56.80;;;;;;4976343;28;20019;-76
2021/04/23 05:10:21;;;;;;;13.68;5.63;;;3.80;56.70;;;;;;4976198;28;20050;-76
2021/04/23 05:12:47;;;;;;;14.02;4.95;;;3.80;56.80;;;;;;4958860;28;20105;-77
2021/04/23 05:15:14;;;;;;;10.43;4.25;;;3.80;56.80;;;;;;4976259;28;20050;-78
2021/04/23 05:17:40;;;;;;;13.30;4.05;;;3.80;56.90;;;;;;4976172;28;20023;-76
2021/04/23 05:20:08;;;;;;;8.35;3.30;;;3.90;57.10;;;;;;4976050;28;20023;-76
2021/04/23 05:22:34;;;;;;;9.52;3.63;;;4.00;57.20;;;;;;4975992;28;20077;-76
2021/04/23 05:25:00;;;;;;;12.88;5.40;;;4.10;58.10;;;;;;4958457;28;20479;-76
2021/04/23 05:27:25;;;;;;;18.83;6.45;;;4.20;57.20;;;;;;4975701;28;20026;-79
2021/04/23 05:29:51;;;;;;;13.98;5.85;;;4.30;57.10;;;;;;4975497;28;20031;-75
2021/04/23 05:32:20;;;;;;;14.30;5.70;;;4.40;56.70;;;;;;4975772;28;20464;-75
2021/04/23 05:34:46;;;;;;;13.85;5.30;;;4.40;56.50;;;;;;4975224;28;20066;-75
2021/04/23 05:37:11;;;;;;;11.80;5.63;;;4.50;56.40;;;;;;4975654;28;20077;-76
2021/04/23 05:39:37;;;;;;;10.95;4.53;;;4.60;56.20;;;;;;4958179;28;20023;-76
2021/04/23 05:42:04;;;;;;;10.50;5.03;;;4.70;56.10;;;;;;4975525;28;20038;-75
2021/04/23 05:44:29;;;;;;;12.10;4.53;;;4.80;55.90;;;;;;4981899;28;20472;-75
2021/04/23 05:46:55;;;;;;;13.68;5.70;;;4.90;55.80;;;;;;4991879;28;20035;-75
2021/04/23 05:49:21;;;;;;;12.07;4.82;;;5.10;55.50;;;;;;4994953;28;20027;-75
2021/04/23 05:51:46;;;;;;;13.57;5.20;;;5.20;55.10;;;;;;4994789;28;20023;-75
2021/04/23 05:54:12;;;;;;;15.80;5.10;;;5.40;54.90;;;;;;4994700;28;20113;-75
2021/04/23 05:56:37;;;;;;;13.57;4.80;;;5.40;54.60;;;;;;4994387;28;20054;-74
2021/04/23 05:59:04;;;;;;;11.48;4.35;;;5.50;54.40;;;;;;4994577;28;20057;-75
2021/04/23 06:01:29;;;;;;;14.95;4.38;;;5.60;54.00;;;;;;4994691;28;20069;-74
2021/04/23 06:03:55;;;;;;;9.10;3.63;;;5.70;54.20;;;;;;4994379;28;20112;-75
2021/04/23 06:06:20;;;;;;;17.25;4.68;;;5.90;53.80;;;;;;4994090;28;20073;-76
2021/04/23 06:08:46;;;;;;;18.55;4.55;;;6.00;53.40;;;;;;4994319;28;20053;-76
2021/04/23 06:11:17;;;;;;;13.73;4.03;;;6.10;53.00;;;;;;4994461;28;20026;-78
2021/04/23 06:13:44;;;;;;;9.32;3.90;;;6.20;52.50;;;;;;4996049;28;20113;-75
2021/04/23 06:16:10;;;;;;;11.98;4.25;;;6.30;52.10;;;;;;4999146;28;20045;-77
2021/04/23 06:18:37;;;;;;;12.15;4.50;;;6.50;51.80;;;;;;4996681;28;20387;-75
2021/04/23 06:21:03;;;;;;;10.77;3.80;;;6.60;51.40;;;;;;4994198;28;20040;-76
2021/04/23 06:23:29;;;;;;;11.00;4.30;;;6.70;51.10;;;;;;4994360;28;20030;-76
2021/04/23 06:25:55;;;;;;;13.07;4.72;;;6.90;50.60;;;;;;4996049;28;20030;-78
2021/04/23 06:28:20;;;;;;;11.57;3.28;;;7.00;50.00;;;;;;5008231;28;20040;-79
2021/04/23 06:30:46;;;;;;;14.00;4.80;;;7.20;49.40;;;;;;5009548;28;20029;-80
2021/04/23 06:33:18;;;;;;;13.68;4.70;;;7.30;48.80;;;;;;4996946;28;20053;-80
2021/04/23 06:35:43;;;;;;;15.43;4.78;;;7.40;48.20;;;;;;4994682;28;20026;-79
2021/04/23 06:38:10;;;;;;;10.88;5.15;;;7.50;47.80;;;;;;4994001;28;20034;-79
2021/04/23 06:40:35;;;;;;;15.38;4.72;;;7.60;47.50;;;;;;4993693;28;20368;-79
2021/04/23 06:43:03;;;;;;;15.52;4.60;;;7.70;47.60;;;;;;4993711;28;20030;-80
2021/04/23 06:45:28;;;;;;;14.80;4.90;;;7.80;47.30;;;;;;4993705;28;20053;-79
2021/04/23 06:47:54;;;;;;;13.48;4.90;;;7.90;46.90;;;;;;4993560;28;20054;-79
2021/04/23 06:50:22;;;;;;;11.77;4.68;;;8.00;46.70;;;;;;4993510;28;20027;-80
2021/04/23 06:52:48;;;;;;;16.33;5.05;;;8.00;46.40;;;;;;4993553;28;20026;-79
2021/04/23 06:55:15;;;;;;;16.70;5.63;;;8.20;46.30;;;;;;4993147;28;20509;-80
2021/04/23 06:57:42;;;;;;;14.20;4.95;;;8.30;46.10;;;;;;4993042;28;20463;-79
2021/04/23 07:00:11;;;;;;;14.45;5.07;;;8.30;45.90;;;;;;4992902;28;20034;-80
2021/04/23 07:02:37;;;;;;;16.65;4.72;;;8.40;45.80;;;;;;4992603;28;20131;-80
2021/04/23 07:05:05;;;;;;;14.57;4.53;;;8.40;45.70;;;;;;4992695;28;20360;-77
2021/04/23 07:07:30;;;;;;;21.98;4.78;;;8.50;45.80;;;;;;4992736;28;20027;-79
2021/04/23 07:09:56;;;;;;;13.85;3.95;;;8.60;45.60;;;;;;4992774;28;20432;-80
2021/04/23 07:12:22;;;;;;;10.15;3.65;;;8.70;45.50;;;;;;4993437;28;20034;-79
2021/04/23 07:14:48;;;;;;;14.38;5.38;;;8.70;45.10;;;;;;4998735;28;20538;-76
2021/04/23 07:17:14;;;;;;;16.88;5.20;;;8.70;44.90;;;;;;5002994;28;20395;-77
2021/04/23 07:19:39;;;;;;;16.63;4.57;;;8.80;44.90;;;;;;4993738;28;20027;-78
2021/04/23 07:22:05;;;;;;;14.32;4.15;;;8.80;45.00;;;;;;4974839;28;20041;-75
2021/04/23 07:24:32;;;;;;;11.23;4.25;;;8.90;45.20;;;;;;4992439;28;20025;-78
2021/04/23 07:26:58;;;;;;;19.08;4.32;;;9.00;45.00;;;;;;4992011;28;20053;-79
2021/04/23 07:29:24;;;;;;;19.02;4.53;;;9.10;45.30;;;;;;4974392;28;20463;-75
2021/04/23 07:31:49;;;;;;;15.80;4.85;;;9.30;44.70;;;;;;4992231;28;20105;-75
2021/04/23 07:34:15;;;;;;;17.42;4.82;;;9.20;44.30;;;;;;4992106;28;20038;-74
2021/04/23 07:36:40;;;;;;;13.50;3.45;;;9.40;44.00;;;;;;4992299;28;20125;-75
2021/04/23 07:39:10;;;;;;;10.48;3.67;;;9.50;43.50;;;;;;4992220;28;20030;-76
2021/04/23 07:41:36;;;;;;;14.02;3.70;;;9.50;43.40;;;;;;4991954;28;20031;-75
2021/04/23 07:44:01;;;;;;;16.45;4.38;;;9.70;43.40;;;;;;4991990;28;20369;-76
2021/04/23 07:46:28;;;;;;;11.90;3.63;;;9.80;43.30;;;;;;4992087;28;20033;-75
2021/04/23 07:48:53;;;;;;;16.55;4.50;;;9.70;42.80;;;;;;4991869;28;20451;-76
2021/04/23 07:51:19;;;;;;;12.45;3.90;;;9.80;42.60;;;;;;4992079;28;20110;-76
2021/04/23 07:53:44;;;;;;;14.82;4.18;;;9.90;42.40;;;;;;4991882;28;20018;-74
2021/04/23 07:56:10;;;;;;;12.80;3.88;;;10.00;41.70;;;;;;4973682;28;548606;-74
2021/04/23 07:58:36;;;;;;;16.23;4.75;;;10.10;41.20;;;;;;4993082;28;20506;-77
2021/04/23 08:01:01;;;;;;;16.00;4.03;;;10.00;40.50;;;;;;4992500;28;20507;-75
2021/04/23 08:03:33;;;;;;;13.13;3.90;;;10.00;40.70;;;;;;4992930;28;20022;-75
2021/04/23 08:05:59;;;;;;;18.13;4.18;;;10.00;40.80;;;;;;4992697;28;20209;-75
2021/04/23 08:08:25;;;;;;;15.52;4.63;;;10.10;40.90;;;;;;4992551;28;20561;-75
2021/04/23 08:10:50;;;;;;;12.52;3.95;;;10.20;40.90;;;;;;4992534;28;20027;-76
2021/04/23 08:13:16;;;;;;;18.73;4.60;;;10.30;41.00;;;;;;4992737;28;20072;-75
2021/04/23 08:15:42;;;;;;;10.88;3.20;;;10.40;41.80;;;;;;4992540;28;20435;-76
2021/04/23 08:18:08;;;;;;;9.68;3.65;;;10.60;40.70;;;;;;4992340;28;20108;-75
2021/04/23 08:20:34;;;;;;;13.73;4.18;;;10.80;40.10;;;;;;4992535;28;20372;-76
2021/04/23 08:23:00;;;;;;;8.80;3.63;;;10.90;39.90;;;;;;4992402;28;20037;-76
2021/04/23 08:25:26;;;;;;;18.50;4.40;;;11.00;39.70;;;;;;4992788;28;20026;-76
2021/04/23 08:27:52;;;;;;;11.13;4.45;;;11.10;39.80;;;;;;4993460;28;20479;-75
2021/04/23 08:30:20;;;;;;;11.57;4.60;;;10.90;40.30;;;;;;4995902;28;20029;-75
2021/04/23 08:32:46;;;;;;;14.80;4.38;;;10.90;40.80;;;;;;4978499;28;20058;-76
2021/04/23 08:35:12;;;;;;;11.77;4.57;;;11.00;41.60;;;;;;4996017;28;20065;-75
2021/04/23 08:37:39;;;;;;;16.52;5.03;;;11.00;42.30;;;;;;4995856;28;20508;-74
2021/04/23 08:40:06;;;;;;;14.10;4.97;;;11.20;41.80;;;;;;4995995;28;20026;-75
2021/04/23 08:42:32;;;;;;;30.05;4.90;;;11.20;41.30;;;;;;4995660;28;20061;-75
2021/04/23 08:44:58;;;;;;;17.08;4.20;;;11.70;52.20;;;;;;4995791;28;20484;-78
2021/04/23 08:47:25;;;;;;;12.02;3.67;;;12.10;53.10;;;;;;4995900;28;20475;-77
2021/04/23 08:49:51;;;;;;;17.00;4.38;;;12.50;48.10;;;;;;4995649;28;20084;-74
2021/04/23 08:52:18;;;;;;;13.68;3.80;;;12.90;45.40;;;;;;4995453;28;20014;-74
2021/04/23 08:54:45;;;;;;;12.57;4.25;;;13.10;42.60;;;;;;4995632;28;20037;-74
2021/04/23 08:57:10;;;;;;;10.90;3.97;;;13.20;40.90;;;;;;4995883;28;20125;-73
2021/04/23 08:59:36;;;;;;;12.73;4.07;;;13.30;40.00;;;;;;4995675;28;20425;-73
2021/04/23 09:02:02;;;;;;;13.00;4.00;;;13.40;40.40;;;;;;4995623;28;20381;-74
2021/04/23 09:04:27;;;;;;;12.25;3.88;;;13.60;40.60;;;;;;4977871;28;20045;-73
2021/04/23 09:07:04;;;;;;;9.88;4.03;;;13.90;39.70;;;;;;4995558;28;20473;-75
2021/04/23 09:09:44;;;;;;;14.75;4.18;;;14.10;38.80;;;;;;4995340;28;20434;-73
2021/04/23 09:12:30;;;;;;;16.05;4.70;;;14.20;37.60;;;;;;4995485;28;20109;-73
2021/04/23 09:14:56;;;;;;;10.68;3.80;;;13.90;36.50;;;;;;4994700;28;20038;-75
2021/04/23 09:17:23;;;;;;;11.73;3.65;;;14.10;36.80;;;;;;4994826;28;20081;-74
2021/04/23 09:19:50;;;;;;;10.25;4.18;;;14.10;36.30;;;;;;4994999;28;20089;-73
2021/04/23 09:22:23;;;;;;;12.63;3.58;;;14.30;36.50;;;;;;4995301;28;20034;-74
2021/04/23 09:25:04;;;;;;;10.23;3.08;;;14.50;36.70;;;;;;4995179;28;20022;-74
2021/04/23 09:27:36;;;;;;;13.85;4.63;;;14.80;36.50;;;;;;4995104;28;20042;-75
2021/04/23 09:30:06;;;;;;;10.07;3.33;;;14.80;34.90;;;;;;4994843;28;20022;-74
2021/04/23 09:32:40;;;;;;;10.73;3.28;;;14.80;34.50;;;;;;4994797;28;20063;-74
2021/04/23 09:35:14;;;;;;;13.10;3.72;;;14.90;34.70;;;;;;4994925;28;20463;-74
2021/04/23 09:37:46;;;;;;;16.65;4.15;;;15.10;34.90;;;;;;4994637;28;20121;-74
2021/04/23 09:40:18;;;;;;;9.68;3.40;;;15.20;35.00;;;;;;4993967;28;20027;-73
2021/04/23 09:42:48;;;;;;;13.27;3.63;;;15.40;33.60;;;;;;4994591;28;20031;-74
2021/04/23 09:45:18;;;;;;;13.63;5.00;;;15.40;33.00;;;;;;4994568;28;20023;-75
2021/04/23 09:47:44;;;;;;;15.23;3.97;;;15.20;32.50;;;;;;4994586;28;20022;-73
2021/04/23 09:50:11;;;;;;;8.68;3.17;;;15.10;32.80;;;;;;4994535;28;20646;-77
2021/04/23 09:53:06;;;;;;;13.05;3.58;;;15.20;32.90;;;;;;4976575;28;20324;-74
2021/04/23 09:55:32;;;;;;;12.93;3.30;;;15.50;33.00;;;;;;4991262;28;20096;-76
2021/04/23 09:58:07;;;;;;;8.85;3.25;;;15.70;32.60;;;;;;4976450;28;20094;-73
2021/04/23 10:00:36;;;;;;;13.27;3.50;;;15.90;32.40;;;;;;4993696;28;20030;-74
2021/04/23 10:03:03;;;;;;;11.20;4.10;;;16.10;32.00;;;;;;4993562;28;20509;-74
2021/04/23 10:05:36;;;;;;;13.32;3.75;;;16.30;31.30;;;;;;4993649;28;20057;-74
2021/04/23 10:08:05;;;;;;;11.00;3.17;;;16.30;30.80;;;;;;4993434;28;20022;-76
2021/04/23 10:10:31;;;;;;;12.23;3.42;;;16.10;31.30;;;;;;4994117;28;20014;-76
2021/04/23 10:13:03;;;;;;;10.57;3.17;;;16.30;31.10;;;;;;4993576;28;20030;-77
2021/04/23 10:15:32;;;;;;;12.27;4.20;;;16.40;30.40;;;;;;4977947;28;20027;-77
2021/04/23 10:18:06;;;;;;;13.35;3.72;;;16.20;29.70;;;;;;4993796;28;20035;-74
2021/04/23 10:20:45;;;;;;;15.88;4.38;;;16.10;29.10;;;;;;4994811;28;20022;-77
2021/04/23 10:23:19;;;;;;;13.10;4.10;;;15.80;29.00;;;;;;5003985;28;20049;-78
2021/04/23 10:25:47;;;;;;;14.23;3.85;;;15.60;29.00;;;;;;4988271;28;20022;-78
2021/04/23 10:28:16;;;;;;;12.90;3.65;;;15.60;29.10;;;;;;4986494;28;20033;-78
2021/04/23 10:30:44;;;;;;;16.25;4.43;;;15.30;29.00;;;;;;4985587;28;20042;-79
2021/04/23 10:33:11;;;;;;;14.10;4.40;;;15.30;29.20;;;;;;4993242;28;20030;-78
2021/04/23 10:35:39;;;;;;;15.52;4.25;;;15.40;29.10;;;;;;4997696;28;20028;-76
2021/04/23 10:38:08;;;;;;;10.23;3.35;;;15.20;28.90;;;;;;5014235;28;20026;-75
2021/04/23 10:40:34;;;;;;;9.93;3.80;;;15.30;28.90;;;;;;5009008;28;20011;-79
2021/04/23 10:43:10;;;;;;;13.10;4.22;;;15.40;29.00;;;;;;5002424;28;20026;-78
2021/04/23 10:45:38;;;;;;;13.43;4.57;;;15.70;29.30;;;;;;4996119;28;20069;-77
2021/04/23 10:48:14;;;;;;;13.07;4.20;;;15.60;28.90;;;;;;4977127;28;20406;-77
2021/04/23 10:50:41;;;;;;;;;;;15.70;29.40;;;;;;4993765;28;20487;-79
2021/04/23 10:53:30;;;;;;;13.60;4.30;;;15.90;29.40;;;;;;4993721;28;19912;-77
2021/04/23 10:55:57;;;;;;;12.43;4.28;;;16.10;29.20;;;;;;4975955;28;20061;-77
2021/04/23 10:58:25;;;;;;;12.85;3.85;;;16.20;29.10;;;;;;4993952;28;20169;-78
2021/04/23 11:01:18;;;;;;;14.93;4.38;;;16.50;28.90;;;;;;4993790;28;20030;-78
2021/04/23 11:04:11;;;;;;;11.25;4.30;;;17.00;29.10;;;;;;4972297;28;20034;-78
2021/04/23 11:07:01;;;;;;;11.98;3.83;;;17.50;28.40;;;;;;4966548;28;20112;-77
2021/04/23 11:09:27;;;;;;;12.18;3.90;;;17.60;27.10;;;;;;4966672;28;20073;-78
2021/04/23 11:12:08;;;;;;;8.95;4.13;;;17.60;26.50;;;;;;4976051;28;20034;-78
2021/04/23 11:14:35;;;;;;;9.38;3.45;;;17.60;26.20;;;;;;4976296;28;20026;-78
2021/04/23 11:17:16;;;;;;;7.47;3.65;;;17.80;25.90;;;;;;4975600;28;20030;-76
2021/04/23 11:19:46;;;;;;;11.18;4.10;;;18.00;25.40;;;;;;4975630;28;20027;-77
2021/04/23 11:22:22;;;;;;;14.88;4.25;;;17.90;24.80;;;;;;4975389;28;20034;-76
2021/04/23 11:25:15;;;;;;;16.38;4.18;;;17.90;24.40;;;;;;4962720;28;20027;-77
2021/04/23 11:27:59;;;;;;;12.85;4.18;;;17.70;24.20;;;;;;4940824;28;20443;-77
2021/04/23 11:30:25;;;;;;;11.80;3.90;;;17.80;24.30;;;;;;4956585;28;20029;-78
2021/04/23 11:32:54;;;;;;;11.48;3.90;;;17.50;24.40;;;;;;4956400;28;20499;-78
2021/04/23 11:35:24;;;;;;;13.85;3.85;;;17.30;24.40;;;;;;4973966;28;20062;-75
2021/04/23 11:37:53;;;;;;;18.58;4.57;;;17.20;24.40;;;;;;4956011;28;20034;-78
2021/04/23 11:40:25;;;;;;;12.30;4.03;;;17.20;24.60;;;;;;4956219;28;20031;-80
2021/04/23 11:42:55;;;;;;;15.30;4.32;;;17.10;24.70;;;;;;4956416;28;20130;-75
2021/04/23 11:45:33;;;;;;;10.50;3.50;;;17.40;24.60;;;;;;4956404;28;20460;-76
2021/04/23 11:48:00;;;;;;;11.05;3.40;;;18.00;24.90;;;;;;4951965;28;20065;-78
2021/04/23 11:50:30;;;;;;;7.35;3.95;;;18.50;24.70;;;;;;4956430;28;20023;-73
2021/04/23 11:53:17;;;;;;;13.48;3.97;;;18.60;23.80;;;;;;4973546;28;20066;-75
2021/04/23 11:55:45;;;;;;;13.40;4.35;;;18.80;23.30;;;;;;4956110;28;20049;-76
2021/04/23 11:58:13;;;;;;;9.10;3.88;;;18.90;23.00;;;;;;4973119;28;20126;-77
2021/04/23 12:00:45;;;;;;;14.73;4.38;;;18.80;22.90;;;;;;4973485;28;20015;-75
2021/04/23 12:03:16;;;;;;;12.43;4.00;;;18.90;23.10;;;;;;4974503;28;20085;-75
2021/04/23 12:05:45;;;;;;;17.35;4.45;;;18.70;22.80;;;;;;4977254;28;20027;-74
2021/04/23 12:08:16;;;;;;;10.90;3.72;;;19.00;22.80;;;;;;4977159;28;20027;-76
2021/04/23 12:10:49;;;;;;;14.02;3.63;;;19.20;22.70;;;;;;4977268;28;20031;-77
2021/04/23 12:13:23;;;;;;;11.82;3.85;;;19.40;22.40;;;;;;4977208;28;20022;-75
2021/04/23 12:15:51;;;;;;;9.52;4.07;;;19.30;21.90;;;;;;4977107;28;20062;-76
2021/04/23 12:18:17;;;;;;;7.50;3.47;;;19.30;21.70;;;;;;4976877;28;20077;-74
2021/04/23 12:20:45;;;;;;;11.85;3.90;;;19.50;21.50;;;;;;4976831;28;20469;-76
2021/04/23 12:23:15;;;;;;;15.07;4.10;;;19.60;21.40;;;;;;4976794;28;20031;-74
2021/04/23 12:25:50;;;;;;;12.88;4.05;;;19.50;21.20;;;;;;4976447;28;20479;-75
2021/04/23 12:28:15;;;;;;;14.25;4.50;;;19.20;21.10;;;;;;4976356;28;20540;-75
2021/04/23 12:30:41;;;;;;;11.02;3.60;;;19.40;20.90;;;;;;4976893;28;20101;-74
2021/04/23 12:33:06;;;;;;;8.90;3.65;;;19.40;20.80;;;;;;4976569;28;20034;-75
2021/04/23 12:35:38;;;;;;;11.52;3.90;;;19.70;20.90;;;;;;4976665;28;20110;-74
2021/04/23 12:38:07;;;;;;;10.18;3.90;;;19.60;20.60;;;;;;4976881;28;20102;-74
2021/04/23 12:40:35;;;;;;;8.90;4.22;;;19.50;20.60;;;;;;4976585;28;20026;-74
2021/04/23 12:43:16;;;;;;;11.40;3.90;;;19.30;20.40;;;;;;4976625;28;20037;-74
2021/04/23 12:45:43;;;;;;;8.75;3.85;;;19.70;21.00;;;;;;4976322;28;20023;-75
2021/04/23 12:48:10;;;;;;;9.20;3.65;;;20.10;20.50;;;;;;4975954;28;20026;-75
2021/04/23 12:50:36;;;;;;;13.80;4.47;;;20.40;20.20;;;;;;4976301;28;20507;-74